Time;durP1;ratioP1;P1;durP2;ratioP2;P2;SDS_P1;SDS_P2;PMS_P1;PMS_P2;Temp;Humidity;BMP_temperature;BMP_pressure;BME280_temperature;BME280_humidity;BME280_pressure;Samples;Min_cycle;Max_cycle;Signal;HPM_P1;HPM_P2
2023/08/16 00:01:54;;;;;;;;;3.75;3.75;;;;;23.36;46.47;101376.84;5042114;28;45304;-65
2023/08/16 00:04:19;;;;;;;;;3.00;3.00;;;;;23.34;46.61;101378.72;5041689;28;46393;-65
2023/08/16 00:06:44;;;;;;;;;3.25;3.25;;;;;23.35;46.88;101380.47;5041734;28;45411;-64
2023/08/16 00:09:10;;;;;;;;;4.00;3.00;;;;;23.33;46.60;101374.34;5041830;28;45439;-64
2023/08/16 00:11:35;;;;;;;;;3.50;3.50;;;;;23.32;46.52;101372.63;5041614;28;45305;-65
2023/08/16 00:14:00;;;;;;;;;6.00;4.00;;;;;23.30;46.86;101376.34;5041925;28;45324;-65
2023/08/16 00:16:26;;;;;;;;;3.00;3.00;;;;;23.29;46.55;101370.09;5041601;28;46031;-65
2023/08/16 00:18:51;;;;;;;;;4.00;3.00;;;;;23.28;46.81;101373.75;5041662;28;45320;-65
2023/08/16 00:21:16;;;;;;;;;3.00;2.75;;;;;23.28;46.70;101368.41;5040179;28;45377;-65
2023/08/16 00:23:42;;;;;;;;;4.25;3.00;;;;;23.28;46.75;101370.19;5023316;28;45345;-65
2023/08/16 00:26:07;;;;;;;;;4.00;4.00;;;;;23.27;46.66;101366.66;5041300;28;45399;-64
2023/08/16 00:28:32;;;;;;;;;5.75;4.75;;;;;23.27;46.86;101368.44;5040767;28;45393;-64
2023/08/16 00:30:57;;;;;;;;;4.25;4.25;;;;;23.26;46.92;101361.34;5041613;28;45251;-65
2023/08/16 00:33:23;;;;;;;;;4.00;4.00;;;;;23.21;46.85;101362.50;5041265;28;45442;-64
2023/08/16 00:35:52;;;;;;;;;3.50;3.50;;;;;23.24;47.06;101376.69;5040181;28;46503;-64
2023/08/16 00:38:18;;;;;;;;;4.75;4.75;;;;;23.22;46.93;101363.38;5041172;28;45381;-65
2023/08/16 00:40:47;;;;;;;;;4.00;3.50;;;;;23.20;47.02;101367.97;5041102;28;45435;-65
2023/08/16 00:43:13;;;;;;;;;3.75;3.75;;;;;23.21;46.99;101364.34;5041384;28;45951;-64
2023/08/16 00:45:38;;;;;;;;;4.75;3.00;;;;;23.21;47.04;101361.66;5040454;28;59343;-65
2023/08/16 00:48:04;;;;;;;;;5.00;3.00;;;;;23.21;47.02;101358.97;5041170;28;45280;-65
2023/08/16 00:50:30;;;;;;;;;2.75;2.50;;;;;23.20;46.98;101355.41;5041031;28;45242;-65
2023/08/16 00:52:55;;;;;;;;;4.00;4.00;;;;;23.18;46.84;101346.59;5041049;28;45511;-65
2023/08/16 00:55:21;;;;;;;;;5.25;4.00;;;;;23.19;47.15;101350.13;5040769;28;45431;-64
2023/08/16 00:57:48;;;;;;;;;4.00;4.00;;;;;23.17;46.99;101349.38;5041241;28;45325;-64
2023/08/16 01:00:14;;;;;;;;;6.00;5.00;;;;;23.17;47.21;101354.75;5037095;28;45354;-64
2023/08/16 01:02:39;;;;;;;;;3.25;3.25;;;;;23.16;47.13;101350.34;5026036;28;45342;-64
2023/08/16 01:05:06;;;;;;;;;3.00;3.00;;;;;23.15;47.14;101351.25;5040389;28;50294;-64
2023/08/16 01:07:31;;;;;;;;;4.50;3.50;;;;;23.16;47.00;101344.97;5041047;28;45368;-64
2023/08/16 01:09:56;;;;;;;;;3.25;3.25;;;;;23.14;47.12;101339.63;5040472;28;45471;-64
2023/08/16 01:12:36;;;;;;;;;3.75;3.50;;;;;23.13;47.25;101337.06;5040942;28;45505;-64
2023/08/16 01:15:32;;;;;;;;;6.50;3.50;;;;;23.12;47.58;101338.00;5040582;28;45492;-65
2023/08/16 01:17:59;;;;;;;;;3.25;3.25;;;;;23.09;47.47;101331.00;5039267;28;45235;-65
2023/08/16 01:20:27;;;;;;;;;4.50;4.50;;;;;23.09;47.29;101330.16;5029140;28;45344;-64
2023/08/16 01:23:04;;;;;;;;;3.25;3.00;;;;;23.09;47.26;101332.84;5023620;28;45468;-65
2023/08/16 01:25:42;;;;;;;;;4.00;4.00;;;;;23.07;47.42;101334.72;5020445;28;45162;-64
2023/08/16 01:28:09;;;;;;;;;3.25;3.25;;;;;23.02;47.48;101330.50;5020709;28;45321;-64
2023/08/16 01:30:35;;;;;;;;;4.50;3.00;;;;;23.03;47.70;101332.25;5020739;28;45426;-64
2023/08/16 01:33:08;;;;;;;;;4.00;4.00;;;;;23.03;47.86;101340.28;5019362;28;45339;-65
2023/08/16 01:35:35;;;;;;;;;9.00;4.50;;;;;23.02;47.71;101343.06;5020506;28;45558;-65
2023/08/16 01:38:02;;;;;;;;;4.00;4.00;;;;;23.01;47.59;101342.16;5020370;28;45350;-65
2023/08/16 01:40:41;;;;;;;;;4.75;4.75;;;;;22.99;47.40;101346.78;5020530;28;45349;-65
2023/08/16 01:43:10;;;;;;;;;5.75;4.75;;;;;23.01;47.38;101344.00;5020639;28;45236;-65
2023/08/16 01:45:35;;;;;;;;;4.25;4.00;;;;;23.01;47.68;101335.97;5020162;28;46040;-65
2023/08/16 01:48:03;;;;;;;;;3.25;3.25;;;;;22.99;47.61;101341.41;5020424;28;45230;-65
2023/08/16 01:50:28;;;;;;;;;3.00;3.00;;;;;22.99;47.44;101345.88;5020420;28;45261;-65
2023/08/16 01:52:54;;;;;;;;;4.50;4.50;;;;;22.94;47.64;101338.09;5020158;28;45237;-64
2023/08/16 01:55:20;;;;;;;;;2.00;2.00;;;;;22.94;47.73;101353.34;5018862;28;47253;-64
2023/08/16 01:57:45;;;;;;;;;2.75;2.75;;;;;22.92;47.66;101345.38;5020260;28;45326;-64
2023/08/16 02:00:11;;;;;;;;;3.75;3.00;;;;;22.91;47.76;101346.34;5037479;28;45295;-65
2023/08/16 02:02:37;;;;;;;;;1.75;1.00;;;;;22.91;47.90;101343.66;5040053;28;45554;-65
2023/08/16 02:05:02;;;;;;;;;2.75;2.75;;;;;22.88;47.50;101347.38;5039394;28;51711;-64
2023/08/16 02:07:28;;;;;;;;;2.75;2.75;;;;;22.88;47.82;101344.69;5038867;28;45404;-65
2023/08/16 02:09:53;;;;;;;;;2.00;2.00;;;;;22.86;47.58;101346.59;5039763;28;45422;-65
2023/08/16 02:12:18;;;;;;;;;4.50;2.00;;;;;22.87;48.07;101348.31;5039893;28;45675;-65
2023/08/16 02:14:44;;;;;;;;;4.50;3.00;;;;;22.87;47.81;101342.09;5039823;28;46201;-64
2023/08/16 02:17:09;;;;;;;;;3.00;3.00;;;;;22.86;47.80;101340.38;5039900;28;45351;-65
2023/08/16 02:19:34;;;;;;;;;3.00;3.00;;;;;22.87;47.98;101345.63;5038659;28;45423;-65
2023/08/16 02:22:00;;;;;;;;;2.00;2.00;;;;;22.85;48.02;101342.16;5039789;28;45340;-65
2023/08/16 02:24:25;;;;;;;;;3.25;2.50;;;;;22.86;47.85;101343.91;5039566;28;46225;-64
2023/08/16 02:26:51;;;;;;;;;4.25;2.00;;;;;22.83;47.69;101343.22;5021781;28;45296;-64
2023/08/16 02:29:17;;;;;;;;;2.25;2.25;;;;;22.85;47.87;101344.00;5039232;28;45329;-64
2023/08/16 02:31:42;;;;;;;;;3.00;3.00;;;;;22.85;47.90;101338.63;5038412;28;45245;-64
2023/08/16 02:34:08;;;;;;;;;3.00;3.00;;;;;22.83;47.81;101329.81;5039558;28;47002;-65
2023/08/16 02:36:33;;;;;;;;;1.75;1.75;;;;;22.82;48.12;101333.47;5021859;28;45733;-65
2023/08/16 02:39:00;;;;;;;;;3.00;3.00;;;;;22.81;47.88;101329.91;5039393;28;45179;-64
2023/08/16 02:41:25;;;;;;;;;4.00;4.00;;;;;22.80;47.35;101335.34;5039604;28;45355;-64
2023/08/16 02:43:50;;;;;;;;;4.75;3.00;;;;;22.80;47.70;101344.25;5037975;28;46071;-64
2023/08/16 02:46:16;;;;;;;;;3.00;3.00;;;;;22.80;47.87;101346.06;5039081;28;57047;-64
2023/08/16 02:48:41;;;;;;;;;3.25;3.25;;;;;22.79;47.96;101350.59;5031498;28;50015;-65
2023/08/16 02:51:06;;;;;;;;;2.25;2.25;;;;;22.78;47.98;101340.81;5019855;28;45222;-64
2023/08/16 02:53:32;;;;;;;;;4.00;3.00;;;;;22.79;47.95;101345.22;5019139;28;46304;-64
2023/08/16 02:55:57;;;;;;;;;5.75;3.00;;;;;22.77;47.93;101346.25;5019231;28;45235;-64
2023/08/16 02:58:22;;;;;;;;;3.00;3.00;;;;;22.77;48.07;101340.91;5024126;28;45251;-64
2023/08/16 03:00:50;;;;;;;;;2.00;2.00;;;;;22.76;48.17;101334.66;5041744;28;45742;-64
2023/08/16 03:03:16;;;;;;;;;3.00;2.25;;;;;22.74;48.22;101341.91;5041946;28;45489;-64
2023/08/16 03:05:41;;;;;;;;;3.00;3.00;;;;;22.74;48.01;101325.84;5042685;28;45358;-65
2023/08/16 03:08:06;;;;;;;;;2.25;2.25;;;;;22.65;48.01;101326.38;5042720;28;45313;-65
2023/08/16 03:10:32;;;;;;;;;5.00;2.00;;;;;22.73;47.93;101334.84;5030512;28;55163;-65
2023/08/16 03:12:57;;;;;;;;;3.00;3.00;;;;;22.71;48.01;101337.59;5037901;28;46947;-64
2023/08/16 03:15:23;;;;;;;;;2.00;2.00;;;;;22.70;47.94;101335.00;5042792;28;45311;-64
2023/08/16 03:17:48;;;;;;;;;3.00;2.50;;;;;22.68;48.02;101332.41;5042799;28;45259;-64
2023/08/16 03:20:13;;;;;;;;;2.00;2.00;;;;;22.68;47.82;101331.56;5042713;28;45148;-65
2023/08/16 03:22:39;;;;;;;;;2.00;2.00;;;;;22.67;47.96;101329.84;5040685;28;45450;-64
2023/08/16 03:25:04;;;;;;;;;3.75;3.50;;;;;22.67;47.89;101336.03;5042015;28;47000;-64
2023/08/16 03:27:29;;;;;;;;;5.00;4.50;;;;;22.63;48.05;101329.13;5042786;28;45546;-64
2023/08/16 03:29:55;;;;;;;;;3.00;3.00;;;;;22.65;47.82;101337.09;5042394;28;49308;-65
2023/08/16 03:32:20;;;;;;;;;0.75;0.75;;;;;22.64;47.94;101336.22;5042415;28;46004;-65
2023/08/16 03:34:46;;;;;;;;;3.50;3.00;;;;;22.58;48.09;101324.97;5042371;28;45221;-64
2023/08/16 03:37:11;;;;;;;;;3.00;3.00;;;;;22.64;47.90;101341.59;5041181;28;45422;-64
2023/08/16 03:39:36;;;;;;;;;2.25;2.25;;;;;22.64;47.89;101335.34;5041557;28;46076;-64
2023/08/16 03:42:02;;;;;;;;;2.25;1.00;;;;;22.61;47.85;101333.72;5042125;28;46275;-64
2023/08/16 03:44:27;;;;;;;;;2.25;2.00;;;;;22.59;47.94;101324.91;5040912;28;45225;-64
2023/08/16 03:46:52;;;;;;;;;2.50;1.25;;;;;22.59;48.00;101327.59;5024513;28;45310;-64
2023/08/16 03:49:18;;;;;;;;;2.25;1.75;;;;;22.57;48.52;101329.47;5042290;28;45310;-64
2023/08/16 03:51:43;;;;;;;;;3.50;2.00;;;;;22.58;48.07;101324.97;5042194;28;45431;-64
2023/08/16 03:54:08;;;;;;;;;2.00;0.50;;;;;22.57;47.77;101318.75;5042008;28;45399;-64
2023/08/16 03:56:34;;;;;;;;;2.00;2.00;;;;;22.54;48.22;101325.16;5042187;28;45697;-64
2023/08/16 03:58:59;;;;;;;;;2.00;2.00;;;;;22.56;48.09;101330.41;5042108;28;45258;-64
2023/08/16 04:01:24;;;;;;;;;3.00;2.00;;;;;22.55;48.14;101326.00;5041872;28;47126;-64
2023/08/16 04:03:50;;;;;;;;;5.50;4.00;;;;;22.54;48.38;101322.47;5041984;28;45466;-65
2023/08/16 04:06:19;;;;;;;;;3.00;3.00;;;;;22.53;47.91;101322.56;5042010;28;45463;-65
2023/08/16 04:08:45;;;;;;;;;3.25;3.25;;;;;22.52;47.94;101326.19;5040762;28;45316;-64
2023/08/16 04:11:10;;;;;;;;;2.75;2.00;;;;;22.50;47.86;101328.09;5041536;28;45863;-64
2023/08/16 04:13:35;;;;;;;;;3.00;2.25;;;;;22.51;48.53;101324.47;5041400;28;50559;-64
2023/08/16 04:16:00;;;;;;;;;2.00;2.00;;;;;22.48;48.04;101330.00;5041877;28;45228;-64
2023/08/16 04:18:26;;;;;;;;;4.25;2.50;;;;;22.47;47.96;101322.91;5027695;28;45244;-64
2023/08/16 04:20:52;;;;;;;;;3.75;2.00;;;;;22.46;48.33;101321.19;5027785;28;45270;-64
2023/08/16 04:23:17;;;;;;;;;4.25;4.25;;;;;22.45;48.44;101319.44;5019754;28;45292;-64
2023/08/16 04:25:42;;;;;;;;;2.25;2.25;;;;;22.44;48.29;101312.34;5021784;28;45379;-64
2023/08/16 04:28:08;;;;;;;;;2.50;2.50;;;;;22.44;47.87;101318.59;5021888;28;45262;-64
2023/08/16 04:30:34;;;;;;;;;2.00;2.00;;;;;22.42;47.84;101311.59;5021417;28;49498;-64
2023/08/16 04:32:59;;;;;;;;;4.00;3.00;;;;;22.40;48.23;101317.00;5021741;28;45401;-64
2023/08/16 04:35:24;;;;;;;;;3.50;3.50;;;;;22.39;48.25;101316.16;5021629;28;45496;-64
2023/08/16 04:37:49;;;;;;;;;2.75;2.75;;;;;22.38;48.04;101317.09;5021567;28;45305;-64
2023/08/16 04:40:15;;;;;;;;;3.00;3.00;;;;;22.37;48.34;101322.53;5020894;28;56983;-64
2023/08/16 04:42:40;;;;;;;;;3.50;3.00;;;;;22.35;48.71;101317.25;5021355;28;45361;-64
2023/08/16 04:45:06;;;;;;;;;3.00;2.00;;;;;22.32;48.40;101309.38;5021442;28;45323;-64
2023/08/16 04:47:31;;;;;;;;;4.25;3.00;;;;;22.31;48.39;101317.50;5003405;28;45408;-64
2023/08/16 04:49:58;;;;;;;;;5.25;2.00;;;;;22.32;48.50;101316.53;5021453;28;45423;-64
2023/08/16 04:52:23;;;;;;;;;2.75;2.25;;;;;22.28;48.51;101310.50;5034514;28;45357;-64
2023/08/16 04:54:49;;;;;;;;;4.75;3.00;;;;;22.27;48.43;101319.47;5021058;28;45207;-64
2023/08/16 04:57:14;;;;;;;;;3.00;3.00;;;;;22.19;48.08;101308.31;5021258;28;45543;-64
2023/08/16 04:59:40;;;;;;;;;4.00;2.75;;;;;22.18;48.67;101306.59;5034011;28;45221;-64
2023/08/16 05:02:05;;;;;;;;;3.25;3.25;;;;;22.22;48.69;101318.84;5040868;28;45201;-64
2023/08/16 05:04:30;;;;;;;;;4.00;3.00;;;;;22.19;48.37;101311.00;5041330;28;45216;-64
2023/08/16 05:06:56;;;;;;;;;4.00;4.00;;;;;22.19;48.53;101319.03;5040854;28;45144;-65
2023/08/16 05:09:22;;;;;;;;;3.50;2.25;;;;;22.16;48.35;101322.75;5040888;28;45521;-64
2023/08/16 05:11:47;;;;;;;;;3.50;2.75;;;;;22.15;48.74;101333.50;5040566;28;45447;-65
2023/08/16 05:14:13;;;;;;;;;4.25;3.00;;;;;22.14;48.75;101332.66;5041293;28;45302;-64
2023/08/16 05:16:38;;;;;;;;;3.00;3.00;;;;;22.13;48.86;101335.41;5040520;28;47627;-64
2023/08/16 05:19:03;;;;;;;;;12.50;10.75;;;;;22.12;48.93;101336.38;5040273;28;54482;-64
2023/08/16 05:21:29;;;;;;;;;3.50;3.50;;;;;22.10;48.24;101338.25;5040100;28;47409;-64
2023/08/16 05:23:54;;;;;;;;;15.25;13.25;;;;;22.10;48.78;101335.56;5040322;28;45420;-64
2023/08/16 05:26:20;;;;;;;;;4.00;4.00;;;;;22.09;48.72;101334.72;5040306;28;45312;-64
2023/08/16 05:28:45;;;;;;;;;4.50;4.00;;;;;22.06;48.84;101333.06;5040598;28;46177;-64
2023/08/16 05:31:12;;;;;;;;;3.00;3.00;;;;;22.07;48.51;101329.44;5040465;28;45515;-64
2023/08/16 05:33:38;;;;;;;;;4.25;4.25;;;;;22.06;48.43;101332.19;5040935;28;45349;-64
2023/08/16 05:36:03;;;;;;;;;4.75;4.25;;;;;22.06;48.87;101334.88;5022004;28;45406;-65
2023/08/16 05:38:29;;;;;;;;;6.25;5.00;;;;;22.05;48.44;101338.50;5040144;28;45307;-64
2023/08/16 05:40:54;;;;;;;;;20.00;17.50;;;;;22.04;48.63;101345.66;5040195;28;45262;-64
2023/08/16 05:43:20;;;;;;;;;6.00;5.75;;;;;22.05;48.68;101338.50;5040646;28;45395;-64
2023/08/16 05:45:45;;;;;;;;;13.75;11.00;;;;;22.04;48.75;101348.31;5022105;28;45487;-64
2023/08/16 05:48:10;;;;;;;;;4.75;4.75;;;;;22.04;49.14;101345.66;5040280;28;46396;-64
2023/08/16 05:50:36;;;;;;;;;7.25;5.75;;;;;22.05;49.21;101338.50;5040219;28;45401;-64
2023/08/16 05:53:05;;;;;;;;;5.00;5.00;;;;;22.04;48.93;101337.63;5040258;28;45227;-64
2023/08/16 05:55:30;;;;;;;;;3.75;3.25;;;;;22.05;49.00;101325.97;5039869;28;45454;-64
2023/08/16 05:57:55;;;;;;;;;3.25;3.25;;;;;22.06;49.15;101333.06;5040194;28;46044;-64
2023/08/16 06:00:21;;;;;;;;;4.25;3.00;;;;;22.04;49.28;101320.72;5039682;28;52372;-64
2023/08/16 06:02:47;;;;;;;;;3.50;3.50;;;;;22.06;48.69;101327.72;5040179;28;45363;-65
2023/08/16 06:05:13;;;;;;;;;2.75;2.75;;;;;22.05;48.89;101331.34;5036823;28;45491;-64
2023/08/16 06:07:38;;;;;;;;;5.25;3.00;;;;;22.07;49.15;101337.47;5028153;28;45232;-64
2023/08/16 06:10:04;;;;;;;;;3.75;2.75;;;;;22.09;48.82;101340.06;5019237;28;45234;-64
2023/08/16 06:12:30;;;;;;;;;4.00;3.75;;;;;22.11;49.15;101342.66;5027842;28;45473;-64
2023/08/16 06:14:55;;;;;;;;;4.00;4.00;;;;;22.13;49.01;101343.44;5039561;28;45253;-64
2023/08/16 06:17:20;;;;;;;;;6.75;6.00;;;;;22.12;48.90;101339.88;5039774;28;45612;-65
2023/08/16 06:19:46;;;;;;;;;5.50;5.00;;;;;22.17;49.10;101350.34;5039770;28;45169;-65
2023/08/16 06:22:11;;;;;;;;;4.50;3.75;;;;;22.16;49.12;101341.47;5039853;28;45298;-65
2023/08/16 06:24:37;;;;;;;;;4.25;4.25;;;;;22.21;48.99;101351.91;5039371;28;46459;-65
2023/08/16 06:27:02;;;;;;;;;4.00;3.50;;;;;22.23;49.34;101350.03;5039437;28;45239;-65
2023/08/16 06:29:27;;;;;;;;;5.00;4.25;;;;;22.25;49.18;101348.16;5039808;28;45174;-65
2023/08/16 06:31:55;;;;;;;;;4.75;4.75;;;;;22.27;49.12;101348.06;5039116;28;45262;-65
2023/08/16 06:34:21;;;;;;;;;5.75;5.75;;;;;22.28;49.25;101349.78;5039630;28;45463;-64
2023/08/16 06:36:46;;;;;;;;;8.50;7.00;;;;;22.27;49.46;101356.94;5038741;28;45378;-64
2023/08/16 06:39:12;;;;;;;;;9.25;8.25;;;;;22.32;49.04;101362.06;5039165;28;45323;-65
2023/08/16 06:41:38;;;;;;;;;5.50;5.50;;;;;22.32;49.22;101354.88;5039587;28;45425;-65
2023/08/16 06:44:04;;;;;;;;;5.25;4.75;;;;;22.34;49.45;101347.63;5039479;28;45238;-65
2023/08/16 06:46:29;;;;;;;;;6.00;6.00;;;;;22.31;49.06;101339.75;5039357;28;45243;-64
2023/08/16 06:48:54;;;;;;;;;4.00;4.00;;;;;22.37;49.18;101355.53;5039336;28;45271;-65
2023/08/16 06:51:19;;;;;;;;;4.00;3.25;;;;;22.39;49.33;101360.81;5039515;28;50055;-65
2023/08/16 06:53:45;;;;;;;;;7.25;6.00;;;;;22.40;49.32;101359.84;5039180;28;45415;-64
2023/08/16 06:56:11;;;;;;;;;4.50;4.25;;;;;22.42;49.39;101368.66;5038443;28;46061;-65
2023/08/16 06:58:36;;;;;;;;;5.00;5.00;;;;;22.43;49.38;101365.06;5039209;28;45172;-65
2023/08/16 07:01:02;;;;;;;;;3.25;3.00;;;;;22.45;49.29;101364.97;5039619;28;45293;-65
2023/08/16 07:03:27;;;;;;;;;8.25;6.75;;;;;22.47;49.50;101368.44;5039105;28;45550;-64
2023/08/16 07:05:52;;;;;;;;;7.25;4.75;;;;;22.50;49.65;101368.25;5039091;28;46160;-65
2023/08/16 07:08:18;;;;;;;;;4.00;3.50;;;;;22.50;49.07;101363.78;5038963;28;45222;-64
2023/08/16 07:10:43;;;;;;;;;5.50;4.25;;;;;22.54;49.45;101361.75;5037354;28;45373;-65
2023/08/16 07:13:09;;;;;;;;;7.00;6.50;;;;;22.57;49.39;101366.97;5039100;28;45352;-65
2023/08/16 07:15:34;;;;;;;;;4.50;4.50;;;;;22.60;49.47;101361.44;5039086;28;46005;-65
2023/08/16 07:18:01;;;;;;;;;6.50;6.50;;;;;22.64;49.22;101367.50;5021082;28;45341;-64
2023/08/16 07:20:26;;;;;;;;;5.00;5.00;;;;;22.66;49.37;101361.09;5039185;28;45336;-64
2023/08/16 07:22:51;;;;;;;;;7.00;6.25;;;;;22.69;49.47;101363.63;5038574;28;45314;-65
2023/08/16 07:25:17;;;;;;;;;2.75;2.25;;;;;22.72;49.46;101355.41;5038847;28;45256;-65
2023/08/16 07:27:42;;;;;;;;;6.00;5.25;;;;;22.79;49.42;101363.09;5031375;28;45406;-65
2023/08/16 07:30:08;;;;;;;;;6.50;5.25;;;;;22.82;49.39;101361.13;5019208;28;45422;-65
2023/08/16 07:32:33;;;;;;;;;7.00;7.00;;;;;22.85;49.73;101350.22;5019019;28;45176;-65
2023/08/16 07:34:58;;;;;;;;;4.00;4.00;;;;;22.89;49.93;101346.44;5018898;28;46424;-65
2023/08/16 07:37:28;;;;;;;;;5.50;5.00;;;;;22.92;49.70;101344.50;5018987;28;45397;-65
2023/08/16 07:39:55;;;;;;;;;6.75;5.25;;;;;22.99;49.44;101345.88;5018745;28;45487;-65
2023/08/16 07:42:21;;;;;;;;;7.00;6.75;;;;;23.02;49.17;101349.25;5001096;28;45585;-65
2023/08/16 07:44:46;;;;;;;;;7.75;6.00;;;;;23.07;49.59;101348.13;5021324;28;46140;-65
2023/08/16 07:47:14;;;;;;;;;6.25;5.50;;;;;23.11;49.56;101349.69;5022098;28;45285;-65
2023/08/16 07:49:39;;;;;;;;;6.00;6.00;;;;;23.15;49.45;101349.44;5022467;28;45301;-65
2023/08/16 07:52:05;;;;;;;;;5.50;5.50;;;;;23.16;49.59;101342.28;5022169;28;45218;-65
2023/08/16 07:54:30;;;;;;;;;7.75;4.75;;;;;23.22;49.86;101355.34;5004178;28;46040;-65
2023/08/16 07:56:56;;;;;;;;;5.50;4.75;;;;;23.26;49.51;101359.56;5022046;28;45251;-65
2023/08/16 07:59:21;;;;;;;;;5.00;5.00;;;;;23.30;49.65;101352.22;5032582;28;45333;-65
2023/08/16 08:01:46;;;;;;;;;6.00;5.75;;;;;23.34;50.21;101353.75;5024122;28;46566;-66
2023/08/16 08:04:12;;;;;;;;;4.00;4.00;;;;;23.37;49.72;101357.13;5041729;28;46156;-65
2023/08/16 08:06:37;;;;;;;;;5.75;5.75;;;;;23.40;49.87;101352.53;5024026;28;45345;-66
2023/08/16 08:09:03;;;;;;;;;6.00;6.00;;;;;23.45;49.67;101355.81;5042037;28;45245;-66
2023/08/16 08:11:29;;;;;;;;;5.75;4.25;;;;;23.48;49.74;101361.88;5041673;28;45344;-64
2023/08/16 08:13:54;;;;;;;;;7.00;6.00;;;;;23.52;49.79;101359.84;5041609;28;45433;-65
2023/08/16 08:16:20;;;;;;;;;5.75;5.75;;;;;23.54;50.14;101357.94;5023777;28;45440;-64
2023/08/16 08:18:45;;;;;;;;;6.00;5.25;;;;;23.57;49.47;101371.19;5041945;28;45449;-64
2023/08/16 08:21:11;;;;;;;;;7.25;7.00;;;;;23.61;49.66;101370.03;5041674;28;45316;-64
2023/08/16 08:23:36;;;;;;;;;6.50;5.50;;;;;23.58;49.46;101351.44;5040487;28;46072;-64
2023/08/16 08:26:01;;;;;;;;;7.50;4.25;;;;;23.68;49.67;101373.22;5033432;28;45329;-64
2023/08/16 08:28:27;;;;;;;;;8.00;8.00;;;;;23.71;49.65;101365.00;5020449;28;45301;-64
2023/08/16 08:30:53;;;;;;;;;17.25;14.75;;;;;23.73;49.59;101368.44;5021865;28;45466;-64
2023/08/16 08:33:18;;;;;;;;;5.25;5.25;;;;;23.77;49.55;101372.69;5021592;28;45427;-64
2023/08/16 08:35:43;;;;;;;;;4.50;3.75;;;;;23.78;49.62;101374.38;5021541;28;45250;-64
2023/08/16 08:38:09;;;;;;;;;6.00;4.00;;;;;23.85;49.43;101388.31;5021426;28;45455;-64
2023/08/16 08:40:35;;;;;;;;;5.50;5.25;;;;;23.89;49.60;101380.94;5021375;28;45346;-65
2023/08/16 08:43:03;;;;;;;;;5.75;3.00;;;;;23.91;49.59;101377.25;5021434;28;45243;-65
2023/08/16 08:45:30;;;;;;;;;11.50;11.00;;;;;23.94;49.64;101386.94;5020979;28;45339;-65
2023/08/16 08:47:59;;;;;;;;;8.50;5.75;;;;;23.98;49.64;101388.47;5019803;28;45468;-65
2023/08/16 08:50:25;;;;;;;;;8.00;6.00;;;;;24.00;49.46;101382.03;5019988;28;45895;-65
2023/08/16 08:52:51;;;;;;;;;6.75;6.00;;;;;24.06;49.93;101394.22;5021068;28;45305;-65
2023/08/16 08:55:18;;;;;;;;;5.00;5.00;;;;;24.10;49.67;101394.88;5020380;28;45343;-65
2023/08/16 08:57:50;;;;;;;;;6.00;6.00;;;;;24.14;49.44;101393.75;5020882;28;45348;-65
2023/08/16 09:00:19;;;;;;;;;6.00;4.50;;;;;24.18;49.73;101387.25;5038642;28;45430;-65
2023/08/16 09:02:48;;;;;;;;;4.00;4.00;;;;;24.22;49.81;101383.41;5040852;28;46107;-65
2023/08/16 09:05:15;;;;;;;;;7.00;5.00;;;;;24.29;49.73;101387.44;5040809;28;45523;-65
2023/08/16 09:07:41;;;;;;;;;6.50;5.00;;;;;24.30;49.95;101378.44;5040948;28;45278;-65
2023/08/16 09:10:09;;;;;;;;;5.50;5.50;;;;;24.37;50.29;101373.53;5039324;28;45303;-65
2023/08/16 09:12:37;;;;;;;;;5.50;5.50;;;;;24.44;49.80;101372.19;5040789;28;45336;-65
2023/08/16 09:15:03;;;;;;;;;5.50;5.00;;;;;24.52;49.96;101373.53;5040610;28;45365;-65
2023/08/16 09:17:28;;;;;;;;;5.75;4.75;;;;;24.56;49.74;101373.22;5041049;28;45449;-65
2023/08/16 09:19:54;;;;;;;;;5.75;4.75;;;;;24.65;49.92;101370.00;5040609;28;45683;-65
2023/08/16 09:22:20;;;;;;;;;7.75;7.25;;;;;24.74;49.72;101373.94;5040577;28;46055;-65
2023/08/16 09:24:45;;;;;;;;;5.75;5.75;;;;;24.82;49.65;101382.34;5040249;28;45324;-65
2023/08/16 09:27:11;;;;;;;;;7.25;4.50;;;;;24.92;49.89;101373.69;5040758;28;45227;-65
2023/08/16 09:29:40;;;;;;;;;6.75;4.00;;;;;25.03;49.71;101375.66;5040673;28;45286;-65
2023/08/16 09:32:09;;;;;;;;;7.00;5.75;;;;;25.13;50.04;101366.91;5040775;28;46701;-65
2023/08/16 09:34:35;;;;;;;;;5.00;3.00;;;;;25.24;49.80;101368.03;5040523;28;45421;-65
2023/08/16 09:37:03;;;;;;;;;5.50;5.50;;;;;25.33;49.93;101359.31;5040442;28;45250;-65
2023/08/16 09:39:28;;;;;;;;;5.25;4.25;;;;;25.47;49.97;101362.00;5040306;28;45455;-65
2023/08/16 09:41:54;;;;;;;;;6.00;4.75;;;;;25.58;49.87;101357.72;5040163;28;46194;-65
2023/08/16 09:44:19;;;;;;;;;4.50;3.75;;;;;25.73;49.48;101353.13;5039773;28;45360;-65
2023/08/16 09:46:46;;;;;;;;;4.00;4.00;;;;;25.85;49.62;101351.38;5040304;28;45273;-65
2023/08/16 09:49:11;;;;;;;;;4.50;4.00;;;;;25.96;49.34;101348.81;5040448;28;45460;-65
2023/08/16 09:51:40;;;;;;;;;5.00;3.75;;;;;26.09;49.87;101348.88;5040227;28;45324;-65
2023/08/16 09:54:13;;;;;;;;;3.75;3.75;;;;;26.19;49.84;101349.94;5040107;28;45306;-65
2023/08/16 09:56:40;;;;;;;;;2.00;2.00;;;;;26.30;49.31;101343.75;5040158;28;45230;-65
2023/08/16 09:59:07;;;;;;;;;5.75;5.75;;;;;26.41;49.58;101337.63;5040033;28;45444;-65
2023/08/16 10:01:35;;;;;;;;;3.75;3.25;;;;;26.47;49.21;101334.47;5040031;28;46293;-65
2023/08/16 10:04:02;;;;;;;;;3.00;3.00;;;;;26.57;49.46;101326.59;5039265;28;45357;-65
2023/08/16 10:06:30;;;;;;;;;5.00;4.75;;;;;26.64;48.82;101327.88;5039313;28;45351;-65
2023/08/16 10:08:55;;;;;;;;;4.75;4.75;;;;;26.75;49.00;101324.41;5039458;28;45536;-65
2023/08/16 10:11:22;;;;;;;;;3.25;3.25;;;;;26.83;48.82;101315.75;5039658;28;46042;-66
2023/08/16 10:13:48;;;;;;;;;4.00;3.75;;;;;26.92;48.70;101315.09;5039847;28;45183;-66
2023/08/16 10:16:15;;;;;;;;;5.00;3.25;;;;;27.01;48.75;101314.38;5038784;28;45428;-66
2023/08/16 10:18:45;;;;;;;;;2.50;2.25;;;;;27.11;48.13;101314.56;5040144;28;45288;-66
2023/08/16 10:21:17;;;;;;;;;3.75;3.75;;;;;27.22;48.70;101314.59;5039537;28;46100;-66
2023/08/16 10:23:44;;;;;;;;;7.00;6.75;;;;;27.35;48.14;101319.06;5011728;28;45484;-66
2023/08/16 10:26:14;;;;;;;;;4.50;4.00;;;;;27.50;47.99;101325.16;5022526;28;45255;-66
2023/08/16 10:28:50;;;;;;;;;3.00;3.00;;;;;27.63;48.16;101330.47;5019962;28;45309;-66
2023/08/16 10:31:21;;;;;;;;;3.00;3.00;;;;;27.77;48.21;101316.75;5019704;28;46219;-67
2023/08/16 10:33:49;;;;;;;;;4.25;4.25;;;;;27.95;48.64;101313.56;5019861;28;45250;-66
2023/08/16 10:36:15;;;;;;;;;4.00;2.25;;;;;28.10;47.69;101312.41;5019858;28;45350;-66
2023/08/16 10:38:44;;;;;;;;;4.50;3.50;;;;;28.26;48.05;101311.16;5019621;28;45437;-66
2023/08/16 10:41:13;;;;;;;;;3.50;3.50;;;;;28.41;47.78;101318.03;5025952;28;45544;-66
2023/08/16 10:43:46;;;;;;;;;3.25;3.25;;;;;28.57;47.75;101316.78;5039390;28;45339;-67
2023/08/16 10:46:11;;;;;;;;;4.75;2.75;;;;;28.72;47.58;101307.44;5039520;28;45243;-66
2023/08/16 10:48:37;;;;;;;;;3.00;3.00;;;;;28.89;47.39;101313.31;5039521;28;45236;-67
2023/08/16 10:51:04;;;;;;;;;1.00;1.00;;;;;29.05;47.43;101315.59;5039438;28;46113;-67
2023/08/16 10:53:30;;;;;;;;;3.75;3.75;;;;;29.21;47.28;101315.13;5037955;28;45286;-64
2023/08/16 10:55:56;;;;;;;;;3.00;3.00;;;;;29.34;47.12;101319.41;5039387;28;45332;-64
2023/08/16 10:58:23;;;;;;;;;5.00;4.25;;;;;29.49;46.84;101313.69;5033085;28;45405;-64
2023/08/16 11:00:59;;;;;;;;;2.00;2.00;;;;;29.66;46.85;101310.38;5039198;28;47050;-64
2023/08/16 11:03:33;;;;;;;;;2.50;2.50;;;;;29.79;46.85;101298.50;5039153;28;45199;-66
2023/08/16 11:06:00;;;;;;;;;4.00;3.00;;;;;29.97;46.54;101302.31;5029528;28;45329;-66
2023/08/16 11:08:28;;;;;;;;;3.50;3.50;;;;;30.13;46.27;101303.66;5037668;28;45516;-66
2023/08/16 11:10:54;;;;;;;;;3.00;3.00;;;;;30.28;46.36;101296.03;5027086;28;46189;-65
2023/08/16 11:13:19;;;;;;;;;6.00;6.00;;;;;30.42;46.62;101292.06;5033368;28;45316;-66
2023/08/16 11:15:44;;;;;;;;;16.00;14.25;;;;;30.57;45.89;101289.84;5039283;28;45310;-66
2023/08/16 11:18:10;;;;;;;;;3.25;2.00;;;;;30.72;45.79;101284.88;5039664;28;45377;-66
2023/08/16 11:20:35;;;;;;;;;3.00;2.50;;;;;30.85;45.76;101276.47;5042720;28;46886;-65